Time;durP1;ratioP1;P1;durP2;ratioP2;P2;SDS_P1;SDS_P2;PMS_P1;PMS_P2;Temp;Humidity;BMP_temperature;BMP_pressure;BME280_temperature;BME280_humidity;BME280_pressure;Samples;Min_cycle;Max_cycle;Signal;HPM_P1;HPM_P2
2021/03/27 00:02:15;;;;;;;22.70;11.43;;;9.10;61.20;;;;;;4990244;28;20960;-82
2021/03/27 00:07:39;;;;;;;17.60;8.87;;;8.90;64.90;;;;;;4991725;28;20448;-83
2021/03/27 00:10:16;;;;;;;19.80;8.97;;;8.80;63.80;;;;;;4981856;28;20476;-83
2021/03/27 00:12:46;;;;;;;16.37;8.00;;;8.50;65.20;;;;;;4990295;28;20543;-82
2021/03/27 00:15:25;;;;;;;25.70;8.10;;;8.30;76.50;;;;;;4990670;28;20821;-81
2021/03/27 00:17:58;;;;;;;14.37;8.00;;;8.00;83.40;;;;;;4989128;28;20537;-80
2021/03/27 00:20:29;;;;;;;14.77;9.13;;;7.80;99.90;;;;;;4990339;28;20550;-80
2021/03/27 00:23:01;;;;;;;12.50;7.50;;;7.60;99.90;;;;;;4990312;28;20556;-79
2021/03/27 00:25:32;;;;;;;13.40;6.83;;;7.50;99.90;;;;;;4990202;28;21019;-80
2021/03/27 00:28:07;;;;;;;14.37;11.67;;;7.20;99.90;;;;;;4989952;28;20543;-80
2021/03/27 00:30:39;;;;;;;16.90;15.20;;;7.00;99.90;;;;;;4989814;28;20988;-81
2021/03/27 00:33:07;;;;;;;38.37;35.77;;;6.90;99.90;;;;;;4988929;28;20462;-81
2021/03/27 00:35:44;;;;;;;36.33;34.27;;;6.70;99.90;;;;;;4989986;28;20452;-79
2021/03/27 00:38:18;;;;;;;26.87;25.10;;;6.70;99.90;;;;;;4990174;28;20539;-80
2021/03/27 00:40:47;;;;;;;35.63;33.53;;;6.70;99.90;;;;;;4989977;28;20458;-81
2021/03/27 00:43:19;;;;;;;40.40;37.97;;;6.60;99.90;;;;;;4990012;28;20499;-81
2021/03/27 00:45:49;;;;;;;36.00;33.63;;;6.50;99.90;;;;;;4990310;28;20525;-81
2021/03/27 00:48:18;;;;;;;49.97;47.20;;;6.50;99.90;;;;;;4988760;28;20524;-81
2021/03/27 00:50:51;;;;;;;44.87;42.57;;;6.40;99.90;;;;;;4990065;28;20490;-81
2021/03/27 00:53:24;;;;;;;42.70;40.43;;;6.50;99.90;;;;;;4989600;28;20457;-81
2021/03/27 00:55:55;;;;;;;48.87;46.37;;;6.30;99.90;;;;;;4990108;28;20542;-81
2021/03/27 00:58:27;;;;;;;40.47;38.23;;;6.30;99.90;;;;;;4989834;28;20465;-81
2021/03/27 01:00:58;;;;;;;34.77;32.70;;;6.30;99.90;;;;;;4989584;28;20533;-81
2021/03/27 01:03:30;;;;;;;16.10;14.80;;;6.30;99.90;;;;;;4988859;28;20454;-81
2021/03/27 01:05:57;;;;;;;16.10;14.67;;;6.20;99.90;;;;;;4989651;28;20866;-81
2021/03/27 01:08:26;;;;;;;22.13;20.63;;;6.10;99.90;;;;;;4989265;28;20450;-81
2021/03/27 01:10:56;;;;;;;19.97;18.37;;;6.00;99.90;;;;;;4992153;28;20569;-81
2021/03/27 01:13:29;;;;;;;27.67;25.87;;;5.90;99.90;;;;;;4993302;28;20847;-81
2021/03/27 01:16:00;;;;;;;24.33;22.57;;;5.90;99.90;;;;;;4992834;28;20949;-82
2021/03/27 01:18:33;;;;;;;23.20;21.50;;;5.80;99.90;;;;;;4991713;28;20454;-81
2021/03/27 01:21:03;;;;;;;19.57;18.27;;;5.70;99.90;;;;;;4993178;28;20466;-81
2021/03/27 01:23:31;;;;;;;31.10;29.30;;;5.70;99.90;;;;;;4991944;28;20498;-81
2021/03/27 01:26:04;;;;;;;20.53;19.23;;;5.70;99.90;;;;;;4993238;28;20462;-81
2021/03/27 01:28:35;;;;;;;21.40;19.70;;;5.70;99.90;;;;;;4993164;28;20979;-81
2021/03/27 01:31:10;;;;;;;25.43;23.43;;;5.60;99.90;;;;;;4992440;28;21016;-80
2021/03/27 01:33:45;;;;;;;37.03;35.13;;;5.70;99.90;;;;;;4991054;28;20458;-81
2021/03/27 01:36:14;;;;;;;35.27;33.07;;;5.70;99.90;;;;;;4992713;28;20469;-81
2021/03/27 01:38:47;;;;;;;40.30;38.17;;;5.70;99.90;;;;;;4992789;28;20490;-81
2021/03/27 01:41:23;;;;;;;47.77;45.47;;;5.70;99.90;;;;;;4992535;28;20461;-81
2021/03/27 01:43:57;;;;;;;28.10;26.20;;;5.70;99.90;;;;;;4992720;28;20454;-82
2021/03/27 01:47:06;;;;;;;24.83;23.23;;;5.70;99.90;;;;;;4992517;28;20450;-81
2021/03/27 01:49:53;;;;;;;24.13;22.63;;;5.70;99.90;;;;;;4991438;28;20478;-82
2021/03/27 01:52:37;;;;;;;40.43;38.17;;;5.70;99.90;;;;;;4990844;28;21062;-82
2021/03/27 01:55:19;;;;;;;41.03;38.90;;;5.70;99.90;;;;;;4992592;28;20803;-81
2021/03/27 01:58:03;;;;;;;46.40;44.00;;;5.80;99.90;;;;;;4978029;28;20451;-81
2021/03/27 02:00:34;;;;;;;35.90;33.50;;;5.70;99.90;;;;;;4972481;28;20463;-81
2021/03/27 02:03:08;;;;;;;30.27;28.57;;;5.80;99.90;;;;;;4971650;28;20534;-81
2021/03/27 02:05:40;;;;;;;30.63;28.93;;;5.90;99.90;;;;;;4976115;28;20467;-81
2021/03/27 02:08:14;;;;;;;45.13;42.53;;;5.80;99.90;;;;;;4989473;28;20474;-81
2021/03/27 02:10:47;;;;;;;34.63;32.53;;;5.70;99.90;;;;;;4972536;28;20490;-82
2021/03/27 02:13:22;;;;;;;47.77;45.20;;;5.80;99.90;;;;;;4975759;28;20504;-81
2021/03/27 02:15:56;;;;;;;63.70;60.90;;;5.70;99.90;;;;;;4984832;28;20453;-81
2021/03/27 02:18:32;;;;;;;51.33;48.60;;;5.60;99.90;;;;;;4991012;28;20461;-81
2021/03/27 02:21:13;;;;;;;48.77;46.33;;;5.70;99.90;;;;;;4987100;28;20508;-82
2021/03/27 02:24:06;;;;;;;34.80;32.60;;;5.70;99.90;;;;;;4972732;28;20549;-81
2021/03/27 02:26:53;;;;;;;50.97;48.40;;;5.70;99.90;;;;;;4976060;28;20454;-81
2021/03/27 02:30:02;;;;;;;48.33;45.70;;;5.70;99.90;;;;;;4981123;28;20956;-82
2021/03/27 02:32:46;;;;;;;54.43;51.80;;;5.80;99.90;;;;;;4989098;28;20965;-82
2021/03/27 02:35:24;;;;;;;62.33;59.03;;;5.70;99.90;;;;;;4991966;28;20937;-82
2021/03/27 02:38:04;;;;;;;54.60;51.77;;;5.70;99.90;;;;;;4978398;28;20507;-82
2021/03/27 02:40:35;;;;;;;54.40;51.43;;;5.70;99.90;;;;;;4979202;28;20481;-82
2021/03/27 02:43:09;;;;;;;53.53;50.83;;;5.70;99.90;;;;;;4987743;28;20908;-81
2021/03/27 02:45:45;;;;;;;61.20;58.00;;;5.70;99.90;;;;;;4979095;28;20482;-81
2021/03/27 02:48:20;;;;;;;57.43;54.50;;;5.60;99.90;;;;;;4972195;28;20822;-81
2021/03/27 02:51:04;;;;;;;68.33;65.23;;;5.70;99.90;;;;;;4986627;28;20504;-82
2021/03/27 02:53:38;;;;;;;53.67;50.73;;;5.70;99.90;;;;;;4991570;28;20484;-81
2021/03/27 02:56:23;;;;;;;49.53;46.83;;;5.70;99.90;;;;;;4991235;28;20545;-81
2021/03/27 02:59:12;;;;;;;44.37;41.80;;;5.60;99.90;;;;;;4972276;28;20953;-82
2021/03/27 03:01:44;;;;;;;50.43;47.73;;;5.60;99.90;;;;;;4972121;28;20559;-81
2021/03/27 03:04:18;;;;;;;47.70;45.03;;;5.60;99.90;;;;;;4974897;28;20453;-81
2021/03/27 03:06:49;;;;;;;51.50;48.57;;;5.60;99.90;;;;;;4991093;28;20578;-81
2021/03/27 03:09:22;;;;;;;55.80;52.80;;;5.50;99.90;;;;;;4991048;28;20813;-81
2021/03/27 03:12:03;;;;;;;49.93;47.03;;;5.40;99.90;;;;;;4990479;28;20525;-81
2021/03/27 03:14:41;;;;;;;55.10;51.80;;;5.40;99.90;;;;;;4988507;28;20458;-81
2021/03/27 03:17:18;;;;;;;50.33;47.63;;;5.50;99.90;;;;;;4991107;28;20512;-81
2021/03/27 03:19:53;;;;;;;45.07;42.10;;;5.40;99.90;;;;;;4990677;28;20454;-84
2021/03/27 03:22:26;;;;;;;48.40;45.53;;;5.50;99.90;;;;;;4990862;28;20472;-83
2021/03/27 03:25:00;;;;;;;48.20;44.73;;;5.40;99.90;;;;;;4991180;28;20529;-84
2021/03/27 03:27:43;;;;;;;45.57;42.97;;;5.50;99.90;;;;;;4991118;28;20473;-83
2021/03/27 03:30:36;;;;;;;37.07;34.97;;;5.60;99.90;;;;;;4990615;28;20527;-84
2021/03/27 03:33:29;;;;;;;37.63;34.27;;;5.70;99.90;;;;;;4989508;28;20537;-84
2021/03/27 03:35:59;;;;;;;30.03;27.80;;;5.80;99.90;;;;;;4990310;28;20498;-84
2021/03/27 03:38:45;;;;;;;26.77;24.63;;;5.80;99.90;;;;;;4990778;28;20451;-83
2021/03/27 03:41:17;;;;;;;23.10;20.70;;;5.60;99.90;;;;;;4990436;28;20969;-84
2021/03/27 03:43:52;;;;;;;19.30;17.47;;;5.70;99.90;;;;;;4990696;28;20446;-84
2021/03/27 03:46:31;;;;;;;20.33;18.30;;;5.70;99.90;;;;;;4989886;28;20481;-81
2021/03/27 03:49:24;;;;;;;27.10;24.73;;;5.70;99.90;;;;;;4994212;28;20458;-81
2021/03/27 03:52:14;;;;;;;29.43;27.30;;;5.40;99.90;;;;;;4971287;28;20516;-84
2021/03/27 03:54:55;;;;;;;30.67;28.67;;;5.50;99.90;;;;;;4971083;28;20550;-83
2021/03/27 03:57:43;;;;;;;30.73;27.77;;;5.30;99.90;;;;;;4982490;28;20494;-82
2021/03/27 04:00:15;;;;;;;24.43;22.33;;;5.40;99.90;;;;;;4990672;28;20843;-83
2021/03/27 04:02:47;;;;;;;29.23;25.80;;;5.60;99.90;;;;;;4989364;28;20459;-83
2021/03/27 04:05:20;;;;;;;24.43;22.47;;;5.60;99.90;;;;;;4990729;28;20873;-83
2021/03/27 04:07:54;;;;;;;27.37;24.50;;;5.50;99.90;;;;;;4990718;28;20541;-83
2021/03/27 04:10:24;;;;;;;20.23;18.43;;;5.40;99.90;;;;;;4990207;28;20509;-83
2021/03/27 04:12:59;;;;;;;18.20;16.43;;;5.40;99.90;;;;;;4990554;28;20465;-83
2021/03/27 04:15:36;;;;;;;22.67;15.30;;;5.50;99.90;;;;;;4990408;28;20453;-79
2021/03/27 04:18:11;;;;;;;21.70;13.27;;;5.40;99.90;;;;;;4990078;28;20454;-83
2021/03/27 04:20:53;;;;;;;16.47;14.83;;;5.30;99.90;;;;;;4990262;28;20506;-84
2021/03/27 04:23:34;;;;;;;18.67;16.83;;;5.20;99.90;;;;;;4990438;28;20497;-78
2021/03/27 04:26:21;;;;;;;17.40;15.87;;;5.30;99.90;;;;;;4990451;28;20472;-84
2021/03/27 04:29:06;;;;;;;17.70;16.00;;;5.20;99.90;;;;;;4982168;28;20901;-84
2021/03/27 04:31:44;;;;;;;19.23;17.43;;;5.20;99.90;;;;;;4970951;28;20910;-84
2021/03/27 04:34:28;;;;;;;;;;;;;;;;;;;;;
2021/03/27 04:37:04;;;;;;;19.57;17.57;;;5.10;99.90;;;;;;4990186;28;20450;-82
2021/03/27 04:39:35;;;;;;;19.23;17.40;;;5.00;99.90;;;;;;4990224;28;20812;-84
2021/03/27 04:42:13;;;;;;;17.27;15.20;;;5.00;99.90;;;;;;4990200;28;20462;-84
2021/03/27 04:44:46;;;;;;;20.03;13.40;;;5.00;99.90;;;;;;4991192;28;20476;-84
2021/03/27 04:47:22;;;;;;;16.07;12.93;;;5.10;99.90;;;;;;4994168;28;20458;-84
2021/03/27 04:49:55;;;;;;;15.93;13.17;;;5.00;99.90;;;;;;4993472;28;20503;-83
2021/03/27 04:52:38;;;;;;;14.83;13.33;;;5.00;99.90;;;;;;4986541;28;20451;-84
2021/03/27 04:55:33;;;;;;;19.50;13.23;;;5.10;99.90;;;;;;4974268;28;20554;-83
2021/03/27 04:58:32;;;;;;;23.70;13.97;;;5.10;99.90;;;;;;4973134;28;20480;-83
2021/03/27 05:01:16;;;;;;;15.63;9.70;;;5.20;99.90;;;;;;4973461;28;20549;-83
2021/03/27 05:03:51;;;;;;;12.50;8.10;;;5.40;99.90;;;;;;4972502;28;20984;-83
2021/03/27 05:06:22;;;;;;;16.93;7.60;;;5.50;99.90;;;;;;4954696;28;20500;-83
2021/03/27 05:09:00;;;;;;;12.87;6.37;;;5.50;99.90;;;;;;4963263;28;20478;-83
2021/03/27 05:11:39;;;;;;;15.67;5.90;;;5.70;99.90;;;;;;4993283;28;20542;-83
2021/03/27 05:14:18;;;;;;;17.63;6.30;;;5.70;99.40;;;;;;4987468;28;20516;-83
2021/03/27 05:16:54;;;;;;;20.13;7.30;;;5.70;98.00;;;;;;4973873;28;20459;-82
2021/03/27 05:19:42;;;;;;;17.87;7.70;;;5.60;99.60;;;;;;4982681;28;20529;-84
2021/03/27 05:22:37;;;;;;;13.03;10.40;;;5.60;99.90;;;;;;4993153;28;20454;-84
2021/03/27 05:25:22;;;;;;;21.00;19.30;;;5.50;99.90;;;;;;4980175;28;20978;-83
2021/03/27 05:28:03;;;;;;;35.90;33.00;;;5.40;99.90;;;;;;4974426;28;21025;-83
2021/03/27 05:30:43;;;;;;;49.80;46.47;;;5.30;99.90;;;;;;4988827;28;20514;-83
2021/03/27 05:33:39;;;;;;;60.87;56.90;;;5.20;99.90;;;;;;4991544;28;20468;-83
2021/03/27 05:36:26;;;;;;;65.73;62.03;;;5.40;99.90;;;;;;4954193;28;21021;-83
2021/03/27 05:38:58;;;;;;;75.23;71.23;;;5.20;99.90;;;;;;4957382;28;20474;-84
2021/03/27 05:41:48;;;;;;;70.87;66.70;;;5.10;99.90;;;;;;4973300;28;20545;-84
2021/03/27 05:44:40;;;;;;;72.07;67.70;;;5.10;99.90;;;;;;4972037;28;20467;-83
2021/03/27 05:47:48;;;;;;;76.80;72.77;;;5.20;99.90;;;;;;4965214;28;20806;-84
2021/03/27 05:50:37;;;;;;;69.50;65.93;;;5.20;99.90;;;;;;4983379;28;20855;-84
2021/03/27 05:53:27;;;;;;;59.57;55.30;;;5.40;99.90;;;;;;4982689;28;20528;-84
2021/03/27 05:56:13;;;;;;;33.77;31.43;;;5.50;99.90;;;;;;4992162;28;20553;-83
2021/03/27 05:59:06;;;;;;;29.63;26.83;;;5.60;99.90;;;;;;4992441;28;20591;-84
2021/03/27 06:01:47;;;;;;;30.30;27.57;;;5.70;99.90;;;;;;4992435;28;21039;-84
2021/03/27 06:04:30;;;;;;;32.40;29.73;;;5.70;99.90;;;;;;4991259;28;20458;-83
2021/03/27 06:07:43;;;;;;;20.57;18.90;;;5.90;99.90;;;;;;4992247;28;20528;-84
2021/03/27 06:10:41;;;;;;;18.83;14.60;;;5.90;99.90;;;;;;4992055;28;20480;-84
2021/03/27 06:13:37;;;;;;;19.73;12.70;;;6.10;99.90;;;;;;4989826;28;20535;-81
2021/03/27 06:16:49;;;;;;;21.43;9.57;;;6.30;99.90;;;;;;4991923;28;21006;-81
2021/03/27 06:19:48;;;;;;;16.27;10.00;;;6.50;99.90;;;;;;4991014;28;20446;-81
2021/03/27 06:22:38;;;;;;;13.70;7.03;;;6.40;99.90;;;;;;4991926;28;20443;-81
2021/03/27 06:25:28;;;;;;;20.67;9.10;;;6.40;99.90;;;;;;4992127;28;20502;-81
2021/03/27 06:28:35;;;;;;;18.13;16.33;;;6.20;99.90;;;;;;4972682;28;20461;-81
2021/03/27 06:31:33;;;;;;;23.30;21.13;;;5.60;99.90;;;;;;4978881;28;20532;-79
2021/03/27 06:34:41;;;;;;;41.73;38.70;;;5.30;99.90;;;;;;4990201;28;20495;-79
2021/03/27 06:37:58;;;;;;;35.70;33.20;;;5.30;99.90;;;;;;4992065;28;20875;-80
2021/03/27 06:40:45;;;;;;;38.33;35.17;;;5.20;99.90;;;;;;5031991;28;20460;-80
2021/03/27 06:43:37;;;;;;;42.80;40.23;;;5.20;99.90;;;;;;5031302;28;20456;-80
2021/03/27 06:46:51;;;;;;;41.30;38.50;;;5.10;99.90;;;;;;4962185;28;20970;-79
2021/03/27 06:49:58;;;;;;;56.17;53.50;;;5.10;99.90;;;;;;4977873;28;20510;-81
2021/03/27 06:53:09;;;;;;;86.33;82.10;;;5.00;99.90;;;;;;4972253;28;20887;-81
2021/03/27 06:56:05;;;;;;;81.67;77.93;;;4.90;99.90;;;;;;4985626;28;20507;-82
2021/03/27 06:59:04;;;;;;;73.33;69.77;;;4.80;99.90;;;;;;4991591;28;20470;-82
2021/03/27 07:02:08;;;;;;;78.17;74.87;;;4.70;99.90;;;;;;4991434;28;20876;-82
2021/03/27 07:05:22;;;;;;;62.97;60.00;;;4.70;99.90;;;;;;4990372;28;20825;-81
2021/03/27 07:08:26;;;;;;;60.70;57.70;;;4.70;99.90;;;;;;4990116;28;20466;-81
2021/03/27 07:11:29;;;;;;;56.03;53.47;;;4.60;99.90;;;;;;4990600;28;20534;-83
2021/03/27 07:14:44;;;;;;;51.03;48.43;;;4.70;99.90;;;;;;4990674;28;20453;-83
2021/03/27 07:18:00;;;;;;;54.13;51.33;;;4.70;99.90;;;;;;4975655;28;20538;-83
2021/03/27 07:21:05;;;;;;;34.50;31.90;;;4.70;99.90;;;;;;4996189;28;20541;-83
2021/03/27 07:24:03;;;;;;;32.43;29.83;;;4.70;99.90;;;;;;4988197;28;20827;-82
2021/03/27 07:27:22;;;;;;;31.03;28.60;;;4.60;99.90;;;;;;4965136;28;20454;-82
2021/03/27 07:30:29;;;;;;;27.00;25.20;;;4.60;99.90;;;;;;4989947;28;20454;-83
2021/03/27 07:33:38;;;;;;;20.47;19.07;;;4.70;99.90;;;;;;4987608;28;20545;-83
2021/03/27 07:47:18;;;;;;;10.23;9.23;;;5.40;99.90;;;;;;4868410;28;20914;-83
2021/03/27 07:50:21;;;;;;;9.83;7.03;;;5.70;99.90;;;;;;4962774;28;20492;-82
2021/03/27 07:52:58;;;;;;;12.03;7.93;;;5.90;99.90;;;;;;4988385;28;20534;-81
2021/03/27 07:55:59;;;;;;;11.50;7.77;;;6.00;99.90;;;;;;4965065;28;20941;-83
2021/03/27 07:58:59;;;;;;;13.30;7.70;;;6.00;99.90;;;;;;4973786;28;20562;-82
2021/03/27 08:01:48;;;;;;;14.40;4.93;;;6.10;99.90;;;;;;4979010;28;20946;-82
2021/03/27 08:04:57;;;;;;;9.07;4.47;;;6.10;99.90;;;;;;4971005;28;20477;-81
2021/03/27 08:07:52;;;;;;;9.30;5.43;;;6.30;99.90;;;;;;4985405;28;20459;-82
2021/03/27 08:10:38;;;;;;;12.10;4.13;;;6.60;99.60;;;;;;4980894;28;20537;-80
2021/03/27 08:13:31;;;;;;;10.17;2.77;;;6.70;92.80;;;;;;4988145;28;20549;-82
2021/03/27 08:16:41;;;;;;;10.50;3.00;;;6.80;81.60;;;;;;4988584;28;20510;-81
2021/03/27 08:19:52;;;;;;;10.47;3.03;;;6.80;79.00;;;;;;4975623;28;21011;-81
2021/03/27 08:22:51;;;;;;;9.10;2.97;;;7.10;75.50;;;;;;4972978;28;20455;-82
2021/03/27 08:25:25;;;;;;;10.53;2.07;;;7.30;68.50;;;;;;4975947;28;20476;-82
2021/03/27 08:28:14;;;;;;;14.30;3.20;;;7.30;58.30;;;;;;4979192;28;20536;-82
2021/03/27 08:31:14;;;;;;;12.10;3.00;;;7.50;55.20;;;;;;4974060;28;20479;-81
2021/03/27 08:34:12;;;;;;;12.07;3.20;;;7.60;56.50;;;;;;4992605;28;20540;-82
2021/03/27 08:37:21;;;;;;;9.73;2.27;;;7.60;46.50;;;;;;4954909;28;20460;-82
2021/03/27 08:40:03;;;;;;;12.67;3.73;;;7.40;45.10;;;;;;4966081;28;20456;-81
2021/03/27 08:43:03;;;;;;;15.00;2.70;;;7.40;44.80;;;;;;4993759;28;20525;-81
2021/03/27 08:45:55;;;;;;;13.83;3.53;;;7.60;45.50;;;;;;4989829;28;20545;-82
2021/03/27 08:48:39;;;;;;;15.07;2.67;;;7.90;43.00;;;;;;4984377;28;20461;-83
2021/03/27 08:51:15;;;;;;;21.03;3.80;;;8.10;43.20;;;;;;4982229;28;20485;-82
2021/03/27 08:54:05;;;;;;;14.27;3.13;;;8.30;38.70;;;;;;4988192;28;20461;-83
2021/03/27 08:57:08;;;;;;;21.43;4.10;;;8.20;34.40;;;;;;4986350;28;20450;-81
2021/03/27 09:00:40;;;;;;;18.70;2.20;;;8.20;31.90;;;;;;4974073;28;20454;-82
2021/03/27 09:03:54;;;;;;;14.70;5.73;;;8.40;34.40;;;;;;4982738;28;20545;-82
2021/03/27 09:06:33;;;;;;;14.03;3.57;;;8.30;30.00;;;;;;4980094;28;20446;-82
2021/03/27 09:09:20;;;;;;;12.10;3.27;;;8.60;34.30;;;;;;4978635;28;21031;-82
2021/03/27 09:12:23;;;;;;;13.43;2.70;;;8.50;31.10;;;;;;4965962;28;20485;-83
2021/03/27 09:15:25;;;;;;;13.90;2.80;;;8.60;28.10;;;;;;4958559;28;20567;-82
2021/03/27 09:18:33;;;;;;;16.20;3.47;;;8.70;26.90;;;;;;4972940;28;20467;-83
2021/03/27 09:21:25;;;;;;;15.03;2.60;;;9.50;24.70;;;;;;4984872;28;20461;-82
2021/03/27 09:23:59;;;;;;;15.40;2.97;;;9.50;22.00;;;;;;4979590;28;20483;-83
2021/03/27 09:27:00;;;;;;;20.77;5.40;;;10.00;20.40;;;;;;4979533;28;20453;-82
2021/03/27 09:30:03;;;;;;;16.17;3.43;;;9.30;14.20;;;;;;4989248;28;20824;-83
2021/03/27 09:32:49;;;;;;;18.87;3.80;;;9.10;19.60;;;;;;4988335;28;20875;-83
2021/03/27 09:35:29;;;;;;;16.63;3.23;;;9.40;21.20;;;;;;4965336;28;20491;-82
2021/03/27 09:38:32;;;;;;;16.37;4.13;;;9.80;20.30;;;;;;4976011;28;20463;-82
2021/03/27 09:41:38;;;;;;;20.27;3.50;;;9.60;16.10;;;;;;4980499;28;20480;-83
2021/03/27 09:44:37;;;;;;;20.13;4.20;;;9.60;17.00;;;;;;4912990;28;20466;-83
2021/03/27 09:50:33;;;;;;;16.67;3.60;;;8.60;21.80;;;;;;4999982;28;20491;-84
2021/03/27 09:53:04;;;;;;;19.93;4.63;;;8.30;26.40;;;;;;5062740;28;21617;-85
2021/03/27 09:55:54;;;;;;;18.90;3.87;;;8.10;26.50;;;;;;5075419;28;20545;-82
2021/03/27 09:58:49;;;;;;;12.87;3.10;;;8.10;26.50;;;;;;5074744;28;20474;-84
2021/03/27 10:01:48;;;;;;;;;;;;;;;;;;;;;
2021/03/27 10:04:36;;;;;;;14.93;3.50;;;8.00;28.80;;;;;;5053460;28;20461;-84
2021/03/27 10:07:31;;;;;;;14.47;5.63;;;7.80;28.80;;;;;;5072751;28;20983;-85
2021/03/27 10:10:45;;;;;;;16.63;3.72;;;6.40;99.90;;;;;;5072865;28;20462;-84
2021/03/27 10:17:09;;;;;;;14.53;3.83;;;6.30;94.10;;;;;;4951768;28;20458;-84
2021/03/27 10:20:03;;;;;;;;;;;;;;;;;;;;;
2021/03/27 10:22:46;;;;;;;17.77;3.90;;;6.50;99.00;;;;;;5073925;28;20451;-87
2021/03/27 10:25:26;;;;;;;17.37;3.80;;;6.60;94.20;;;;;;5073897;28;20478;-83
2021/03/27 10:28:00;;;;;;;28.83;4.90;;;6.50;90.80;;;;;;5073488;28;20458;-84
2021/03/27 10:30:32;;;;;;;17.00;4.27;;;6.50;91.00;;;;;;5067453;28;20447;-82
2021/03/27 10:33:13;;;;;;;19.53;4.33;;;6.40;99.90;;;;;;5071546;28;20492;-84
2021/03/27 10:36:20;;;;;;;20.50;4.30;;;6.50;99.90;;;;;;5072891;28;20491;-82
2021/03/27 10:39:28;;;;;;;14.53;4.50;;;7.00;99.90;;;;;;5029890;28;20495;-85
2021/03/27 10:42:25;;;;;;;17.13;4.40;;;7.70;99.90;;;;;;5062748;28;20462;-85
2021/03/27 10:45:23;;;;;;;18.43;4.07;;;8.80;90.90;;;;;;5070022;28;20944;-84
2021/03/27 10:48:24;;;;;;;13.60;7.67;;;9.60;71.00;;;;;;5060736;28;20457;-85
2021/03/27 10:51:04;;;;;;;12.70;3.13;;;10.10;22.50;;;;;;4992162;28;20483;-84
2021/03/27 10:53:52;;;;;;;15.40;3.40;;;10.30;22.30;;;;;;4989899;28;20448;-84
2021/03/27 10:56:35;;;;;;;13.67;3.40;;;10.60;17.20;;;;;;4989838;28;20489;-84
2021/03/27 10:59:14;;;;;;;19.20;3.10;;;10.50;15.30;;;;;;4989225;28;20502;-83
2021/03/27 11:02:13;;;;;;;19.63;4.40;;;10.80;16.30;;;;;;4986433;28;20867;-84
2021/03/27 11:05:14;;;;;;;22.03;3.67;;;10.80;14.90;;;;;;4987120;28;20871;-83
2021/03/27 11:08:40;;;;;;;15.13;2.70;;;10.80;11.20;;;;;;4988999;28;22399;-83
2021/03/27 11:11:55;;;;;;;;;;;;;;;;;;;;;
2021/03/27 11:14:50;;;;;;;16.57;3.20;;;9.40;16.50;;;;;;4978200;28;20456;-84
2021/03/27 11:17:58;;;;;;;14.23;3.33;;;9.00;20.60;;;;;;4985630;28;20466;-84
2021/03/27 11:21:10;;;;;;;12.40;2.63;;;9.00;20.30;;;;;;4984432;28;20459;-85
2021/03/27 11:24:23;;;;;;;14.23;3.00;;;9.50;22.40;;;;;;4951622;28;20484;-85
2021/03/27 11:27:50;;;;;;;13.30;2.90;;;10.60;17.10;;;;;;4983077;28;20458;-84
2021/03/27 11:30:58;;;;;;;16.80;3.63;;;11.30;9.20;;;;;;4983302;28;20515;-85
2021/03/27 11:33:39;;;;;;;13.13;3.00;;;11.00;9.10;;;;;;4987373;28;20548;-85
2021/03/27 11:36:56;;;;;;;19.00;3.87;;;11.40;9.70;;;;;;4990228;28;20539;-84
2021/03/27 11:39:48;;;;;;;19.27;9.40;;;11.90;6.40;;;;;;4894521;29;20488;-88
2021/03/27 11:42:29;;;;;;;16.47;4.70;;;12.10;1.00;;;;;;4990494;28;20453;-83
2021/03/27 11:48:26;;;;;;;19.70;3.23;;;12.50;1.00;;;;;;5312823;22;20528;-85
2021/03/27 11:51:40;;;;;;;17.83;3.90;;;13.30;1.00;;;;;;4986276;28;20462;-86
2021/03/27 11:54:28;;;;;;;24.30;3.87;;;13.20;1.00;;;;;;4984303;28;20454;-84
2021/03/27 11:57:43;;;;;;;;;;;;;;;;;;;;;
2021/03/27 12:01:00;;;;;;;19.80;5.07;;;12.20;1.00;;;;;;4987135;28;20530;-83
2021/03/27 12:04:01;;;;;;;16.10;3.20;;;11.90;1.00;;;;;;4988039;28;20493;-84
2021/03/27 12:06:54;;;;;;;15.40;3.50;;;12.40;1.00;;;;;;4984023;28;20454;-84
2021/03/27 12:09:34;;;;;;;16.37;2.90;;;13.30;1.00;;;;;;4982737;28;20450;-84
2021/03/27 12:12:15;;;;;;;17.13;4.57;;;13.30;1.00;;;;;;4987358;28;20482;-84
2021/03/27 12:18:18;;;;;;;39.33;35.77;;;13.30;1.00;;;;;;4981702;28;20834;-84
2021/03/27 12:21:32;;;;;;;13.60;2.07;;;12.20;1.00;;;;;;4972727;28;20468;-84
2021/03/27 12:24:11;;;;;;;15.10;2.67;;;11.40;1.00;;;;;;4989457;28;20457;-83
2021/03/27 12:27:03;;;;;;;21.00;3.63;;;10.80;1.00;;;;;;4989077;28;21057;-84
2021/03/27 12:39:43;;;;;;;15.50;5.03;;;12.50;1.00;;;;;;4904296;29;20451;-84
2021/03/27 12:42:26;;;;;;;;;;;;;;;;;;;;;
2021/03/27 12:45:16;;;;;;;14.47;2.80;;;12.10;1.00;;;;;;4979318;28;20447;-84
2021/03/27 12:48:07;;;;;;;21.03;4.73;;;11.60;1.00;;;;;;4983992;28;20559;-83
2021/03/27 12:50:58;;;;;;;20.97;3.40;;;11.90;1.00;;;;;;4988832;28;20450;-85
2021/03/27 12:54:09;;;;;;;15.80;2.50;;;11.40;1.00;;;;;;4971421;28;20494;-83
2021/03/27 12:57:17;;;;;;;20.73;2.90;;;11.70;1.00;;;;;;4988439;28;20490;-83
2021/03/27 13:00:14;;;;;;;;;;;;;;;;;;;;;
2021/03/27 13:03:14;;;;;;;16.07;3.87;;;11.90;1.00;;;;;;5017190;28;20834;-84
2021/03/27 13:05:52;;;;;;;61.27;55.87;;;11.90;1.00;;;;;;4988115;28;20449;-84
2021/03/27 13:12:01;;;;;;;16.80;2.47;;;12.30;1.00;;;;;;4991740;28;20487;-83
2021/03/27 13:15:09;;;;;;;14.10;1.87;;;12.40;1.00;;;;;;4997480;28;20462;-83
2021/03/27 13:18:20;;;;;;;14.30;3.77;;;12.30;1.00;;;;;;5021008;28;20446;-83
2021/03/27 13:21:05;;;;;;;19.50;2.47;;;12.50;1.00;;;;;;4972611;28;20462;-83
2021/03/27 13:23:42;;;;;;;16.77;2.93;;;12.00;1.00;;;;;;4997448;28;20457;-84
2021/03/27 13:26:20;;;;;;;15.33;3.03;;;11.80;1.00;;;;;;4990702;28;20455;-84
2021/03/27 13:29:31;;;;;;;19.57;4.70;;;12.10;1.00;;;;;;4990677;28;21373;-83
2021/03/27 13:32:10;;;;;;;11.83;1.43;;;11.80;1.00;;;;;;4972496;28;20493;-83
2021/03/27 13:35:02;;;;;;;15.60;4.67;;;12.10;1.00;;;;;;4983463;28;20457;-83
2021/03/27 13:38:03;;;;;;;15.57;4.23;;;12.10;1.00;;;;;;5009655;28;20449;-84
2021/03/27 13:41:00;;;;;;;18.87;4.70;;;12.20;1.00;;;;;;4985606;28;20448;-83
2021/03/27 13:43:38;;;;;;;13.20;2.47;;;12.30;1.00;;;;;;5000789;28;20446;-84
2021/03/27 13:46:47;;;;;;;;;;;;;;;;;;;;;
2021/03/27 13:49:48;;;;;;;12.93;1.50;;;12.70;1.00;;;;;;4977940;28;20454;-85
2021/03/27 13:52:48;;;;;;;14.60;2.47;;;13.10;1.00;;;;;;4990376;28;20562;-86
2021/03/27 13:55:35;;;;;;;16.40;2.23;;;12.50;1.00;;;;;;4990198;28;20529;-82
2021/03/27 13:58:28;;;;;;;16.10;3.10;;;12.50;1.00;;;;;;4990995;28;20557;-83
2021/03/27 14:01:12;;;;;;;17.13;1.80;;;11.70;1.00;;;;;;4991264;28;20454;-83
2021/03/27 14:04:21;;;;;;;;;;;;;;;;;;;;;
2021/03/27 14:07:01;;;;;;;13.40;2.53;;;11.70;1.00;;;;;;4989947;28;20458;-82
2021/03/27 14:09:49;;;;;;;16.20;2.00;;;11.50;1.00;;;;;;4971675;28;20827;-84
2021/03/27 14:12:29;;;;;;;17.83;4.20;;;11.60;1.00;;;;;;4983361;28;20489;-83
2021/03/27 14:15:23;;;;;;;15.10;1.80;;;11.80;1.00;;;;;;4991132;28;20473;-84
2021/03/27 14:21:31;;;;;;;15.70;2.00;;;13.20;1.00;;;;;;4990602;28;21017;-83
2021/03/27 14:24:43;;;;;;;21.13;2.60;;;12.30;1.00;;;;;;4991750;28;20519;-84
2021/03/27 14:27:44;;;;;;;19.53;2.70;;;11.60;1.00;;;;;;4990826;28;20503;-84
2021/03/27 14:37:28;;;;;;;13.73;2.33;;;10.90;1.00;;;;;;4964488;28;20463;-83
2021/03/27 14:40:42;;;;;;;;;;;;;;;;;;;;;
2021/03/27 14:43:45;;;;;;;14.67;2.70;;;10.30;1.00;;;;;;4895900;28;20459;-82
2021/03/27 14:46:50;;;;;;;16.03;2.90;;;10.20;1.00;;;;;;5014712;28;20452;-82
2021/03/27 14:49:43;;;;;;;16.97;2.10;;;10.10;1.00;;;;;;5029481;28;20464;-82
2021/03/27 14:52:17;;;;;;;13.10;2.17;;;10.10;1.00;;;;;;5029822;28;20477;-82
2021/03/27 14:55:00;;;;;;;18.90;2.77;;;10.00;1.00;;;;;;5008370;28;20470;-82
2021/03/27 14:57:32;;;;;;;14.93;2.67;;;9.90;1.00;;;;;;4990566;28;20461;-82
2021/03/27 15:00:31;;;;;;;16.03;2.70;;;9.70;1.00;;;;;;4990408;28;20467;-82
2021/03/27 15:03:05;;;;;;;13.53;3.00;;;9.70;1.00;;;;;;4988844;28;20462;-82
2021/03/27 15:05:38;;;;;;;21.43;3.10;;;9.60;1.00;;;;;;4990353;28;20903;-82
2021/03/27 15:08:15;;;;;;;17.70;2.57;;;9.70;1.00;;;;;;4990490;28;20965;-82
2021/03/27 15:11:19;;;;;;;;;;;;;;;;;;;;;
2021/03/27 15:14:03;;;;;;;15.00;2.37;;;10.00;1.00;;;;;;4992076;28;20474;-83
2021/03/27 15:17:04;;;;;;;13.50;3.10;;;10.00;1.00;;;;;;4991471;28;20447;-82
2021/03/27 15:20:12;;;;;;;15.17;3.50;;;10.20;1.00;;;;;;4989822;28;20446;-82
2021/03/27 15:22:42;;;;;;;19.20;2.73;;;11.30;1.00;;;;;;5031119;28;20539;-82
2021/03/27 15:28:17;;;;;;;10.90;1.90;;;12.10;1.00;;;;;;4989993;28;20455;-82
2021/03/27 15:30:49;;;;;;;16.93;2.23;;;13.00;1.00;;;;;;4991414;28;20546;-83
2021/03/27 15:33:26;;;;;;;15.03;2.17;;;13.40;1.00;;;;;;4970509;28;20501;-83
2021/03/27 15:36:02;;;;;;;16.03;2.40;;;13.50;1.00;;;;;;4972030;28;20490;-83
2021/03/27 15:38:46;;;;;;;17.13;2.17;;;12.80;1.00;;;;;;4971734;28;20477;-82